sensor_id;sensor_type;location;lat;lon;timestamp;pressure;altitude;pressure_sealevel;temperature;humidity
64025;BME280;50266;57.446;26.936;2023-04-26T00:00:16;98289.89;;;9.27;100.0
64025;BME280;50266;57.446;26.936;2023-04-26T00:01:16;98288.7;;;9.28;100.0
64025;BME280;50266;57.446;26.936;2023-04-26T00:02:16;98291.97;;;9.24;100.0
64025;BME280;50266;57.446;26.936;2023-04-26T00:03:16;98286.34;;;9.33;100.0
64025;BME280;50266;57.446;26.936;2023-04-26T00:04:16;98284.25;;;9.42;100.0
64025;BME280;50266;57.446;26.936;2023-04-26T00:05:16;98284.53;;;9.4;100.0
64025;BME280;50266;57.446;26.936;2023-04-26T00:06:16;98282.69;;;9.48;100.0
64025;BME280;50266;57.446;26.936;2023-04-26T00:07:16;98280.36;;;9.45;100.0
64025;BME280;50266;57.446;26.936;2023-04-26T00:08:16;98278.28;;;9.36;100.0
64025;BME280;50266;57.446;26.936;2023-04-26T00:09:16;98279.44;;;9.42;100.0
64025;BME280;50266;57.446;26.936;2023-04-26T00:10:16;98278.11;;;9.39;100.0
64025;BME280;50266;57.446;26.936;2023-04-26T00:11:16;98281.27;;;9.32;100.0
64025;BME280;50266;57.446;26.936;2023-04-26T00:12:17;98279.67;;;9.25;100.0
64025;BME280;50266;57.446;26.936;2023-04-26T00:13:16;98282.05;;;9.25;100.0
64025;BME280;50266;57.446;26.936;2023-04-26T00:14:16;98280.53;;;9.21;100.0
64025;BME280;50266;57.446;26.936;2023-04-26T00:15:16;98280.94;;;9.23;100.0
64025;BME280;50266;57.446;26.936;2023-04-26T00:16:16;98276.7;;;9.23;100.0
64025;BME280;50266;57.446;26.936;2023-04-26T00:17:16;98279.61;;;9.21;100.0
64025;BME280;50266;57.446;26.936;2023-04-26T00:18:16;98276.23;;;9.27;100.0
64025;BME280;50266;57.446;26.936;2023-04-26T00:19:16;98282.52;;;9.21;100.0
64025;BME280;50266;57.446;26.936;2023-04-26T00:20:17;98280.84;;;9.23;100.0
64025;BME280;50266;57.446;26.936;2023-04-26T00:21:16;98287.05;;;9.11;100.0
64025;BME280;50266;57.446;26.936;2023-04-26T00:22:16;98285.43;;;9.12;100.0
64025;BME280;50266;57.446;26.936;2023-04-26T00:23:16;98285.45;;;9.1;100.0
64025;BME280;50266;57.446;26.936;2023-04-26T00:24:16;98288.12;;;8.9;100.0
64025;BME280;50266;57.446;26.936;2023-04-26T00:25:16;98284.25;;;8.8;100.0
64025;BME280;50266;57.446;26.936;2023-04-26T00:26:16;98285.35;;;8.81;100.0
64025;BME280;50266;57.446;26.936;2023-04-26T00:27:17;98286.98;;;8.85;100.0
64025;BME280;50266;57.446;26.936;2023-04-26T00:28:17;98284.09;;;8.86;100.0
64025;BME280;50266;57.446;26.936;2023-04-26T00:29:17;98283.92;;;8.66;100.0
64025;BME280;50266;57.446;26.936;2023-04-26T00:30:17;98289.66;;;8.76;100.0
64025;BME280;50266;57.446;26.936;2023-04-26T00:31:17;98288.56;;;8.83;100.0
64025;BME280;50266;57.446;26.936;2023-04-26T00:32:17;98294.02;;;8.94;100.0
64025;BME280;50266;57.446;26.936;2023-04-26T00:33:17;98289.12;;;8.82;100.0
64025;BME280;50266;57.446;26.936;2023-04-26T00:34:17;98290.19;;;8.99;100.0
64025;BME280;50266;57.446;26.936;2023-04-26T00:35:17;98287.7;;;9.02;100.0
64025;BME280;50266;57.446;26.936;2023-04-26T00:36:17;98290.41;;;9.09;100.0
64025;BME280;50266;57.446;26.936;2023-04-26T00:37:17;98289.97;;;9.15;100.0
64025;BME280;50266;57.446;26.936;2023-04-26T00:38:17;98291.48;;;9.06;100.0
64025;BME280;50266;57.446;26.936;2023-04-26T00:39:17;98289.31;;;9.09;100.0
64025;BME280;50266;57.446;26.936;2023-04-26T00:40:17;98286.44;;;9.12;100.0
64025;BME280;50266;57.446;26.936;2023-04-26T00:41:17;98285.74;;;9.15;100.0
64025;BME280;50266;57.446;26.936;2023-04-26T00:42:17;98279.77;;;9.14;100.0
64025;BME280;50266;57.446;26.936;2023-04-26T00:43:17;98280.7;;;9.14;100.0
64025;BME280;50266;57.446;26.936;2023-04-26T00:44:17;98278.92;;;9.13;100.0
64025;BME280;50266;57.446;26.936;2023-04-26T00:45:17;98278.03;;;9.11;100.0
64025;BME280;50266;57.446;26.936;2023-04-26T00:46:17;98278.05;;;9.11;100.0
64025;BME280;50266;57.446;26.936;2023-04-26T00:47:17;98280.34;;;9.2;100.0
64025;BME280;50266;57.446;26.936;2023-04-26T00:48:17;98278.8;;;9.18;100.0
64025;BME280;50266;57.446;26.936;2023-04-26T00:49:18;98280.38;;;9.09;100.0
64025;BME280;50266;57.446;26.936;2023-04-26T00:50:18;98287.46;;;9.1;100.0
64025;BME280;50266;57.446;26.936;2023-04-26T00:51:17;98279.77;;;9.11;100.0
64025;BME280;50266;57.446;26.936;2023-04-26T00:52:17;98284.02;;;9.11;100.0
64025;BME280;50266;57.446;26.936;2023-04-26T00:53:17;98283.09;;;9.08;100.0
64025;BME280;50266;57.446;26.936;2023-04-26T00:54:17;98278.03;;;9.0;100.0
64025;BME280;50266;57.446;26.936;2023-04-26T00:55:17;98278.38;;;8.8;100.0
64025;BME280;50266;57.446;26.936;2023-04-26T00:56:17;98279.94;;;8.71;100.0
64025;BME280;50266;57.446;26.936;2023-04-26T00:57:17;98282.5;;;8.77;100.0
64025;BME280;50266;57.446;26.936;2023-04-26T00:58:17;98279.72;;;8.78;100.0
64025;BME280;50266;57.446;26.936;2023-04-26T00:59:20;98279.24;;;8.81;100.0
64025;BME280;50266;57.446;26.936;2023-04-26T01:00:17;98282.8;;;8.81;100.0
64025;BME280;50266;57.446;26.936;2023-04-26T01:01:17;98282.09;;;8.63;100.0
64025;BME280;50266;57.446;26.936;2023-04-26T01:02:17;98283.84;;;8.53;100.0
64025;BME280;50266;57.446;26.936;2023-04-26T01:03:18;98282.83;;;8.46;100.0
64025;BME280;50266;57.446;26.936;2023-04-26T01:04:17;98280.09;;;8.52;100.0
64025;BME280;50266;57.446;26.936;2023-04-26T01:05:17;98284.45;;;8.48;100.0
64025;BME280;50266;57.446;26.936;2023-04-26T01:06:17;98283.84;;;8.41;100.0
64025;BME280;50266;57.446;26.936;2023-04-26T01:07:17;98282.33;;;8.41;100.0
64025;BME280;50266;57.446;26.936;2023-04-26T01:08:17;98285.02;;;8.37;100.0
64025;BME280;50266;57.446;26.936;2023-04-26T01:09:17;98283.83;;;8.28;100.0
64025;BME280;50266;57.446;26.936;2023-04-26T01:10:17;98287.2;;;8.25;100.0
64025;BME280;50266;57.446;26.936;2023-04-26T01:11:20;98282.07;;;8.15;100.0
64025;BME280;50266;57.446;26.936;2023-04-26T01:12:18;98282.78;;;8.19;100.0
64025;BME280;50266;57.446;26.936;2023-04-26T01:13:17;98282.3;;;8.14;100.0
64025;BME280;50266;57.446;26.936;2023-04-26T01:14:17;98282.51;;;8.16;100.0
64025;BME280;50266;57.446;26.936;2023-04-26T01:15:18;98279.06;;;8.12;100.0
64025;BME280;50266;57.446;26.936;2023-04-26T01:16:18;98278.76;;;7.92;100.0
64025;BME280;50266;57.446;26.936;2023-04-26T01:17:18;98282.77;;;7.43;100.0
64025;BME280;50266;57.446;26.936;2023-04-26T01:18:18;98285.57;;;7.32;100.0
64025;BME280;50266;57.446;26.936;2023-04-26T01:19:18;98284.58;;;7.43;100.0
64025;BME280;50266;57.446;26.936;2023-04-26T01:20:18;98284.43;;;7.65;100.0
64025;BME280;50266;57.446;26.936;2023-04-26T01:21:24;98280.77;;;7.95;100.0
64025;BME280;50266;57.446;26.936;2023-04-26T01:22:20;98276.47;;;8.1;100.0
64025;BME280;50266;57.446;26.936;2023-04-26T01:23:20;98276.49;;;8.03;100.0
64025;BME280;50266;57.446;26.936;2023-04-26T01:24:20;98273.98;;;8.02;100.0
64025;BME280;50266;57.446;26.936;2023-04-26T01:25:20;98273.94;;;8.01;100.0
64025;BME280;50266;57.446;26.936;2023-04-26T01:26:20;98275.92;;;7.95;100.0
64025;BME280;50266;57.446;26.936;2023-04-26T01:27:20;98270.2;;;7.85;100.0
64025;BME280;50266;57.446;26.936;2023-04-26T01:28:20;98272.72;;;8.04;100.0
64025;BME280;50266;57.446;26.936;2023-04-26T01:29:20;98273.36;;;8.14;100.0
64025;BME280;50266;57.446;26.936;2023-04-26T01:30:20;98272.06;;;8.02;100.0
64025;BME280;50266;57.446;26.936;2023-04-26T01:31:20;98267.38;;;8.0;100.0
64025;BME280;50266;57.446;26.936;2023-04-26T01:32:20;98271.39;;;7.94;100.0
64025;BME280;50266;57.446;26.936;2023-04-26T01:33:20;98268.22;;;8.03;100.0
64025;BME280;50266;57.446;26.936;2023-04-26T01:34:20;98265.98;;;7.87;100.0
64025;BME280;50266;57.446;26.936;2023-04-26T01:35:20;98264.78;;;7.86;100.0
64025;BME280;50266;57.446;26.936;2023-04-26T01:36:20;98267.91;;;7.88;100.0
64025;BME280;50266;57.446;26.936;2023-04-26T01:37:20;98269.16;;;7.86;100.0
64025;BME280;50266;57.446;26.936;2023-04-26T01:38:20;98264.77;;;7.74;100.0
64025;BME280;50266;57.446;26.936;2023-04-26T01:39:20;98267.57;;;7.71;100.0
64025;BME280;50266;57.446;26.936;2023-04-26T01:40:20;98268.52;;;7.5;100.0
64025;BME280;50266;57.446;26.936;2023-04-26T01:41:20;98267.74;;;7.56;100.0
64025;BME280;50266;57.446;26.936;2023-04-26T01:42:20;98270.62;;;7.65;100.0
64025;BME280;50266;57.446;26.936;2023-04-26T01:43:20;98269.73;;;7.37;100.0
64025;BME280;50266;57.446;26.936;2023-04-26T01:44:20;98268.05;;;7.22;100.0
64025;BME280;50266;57.446;26.936;2023-04-26T01:45:20;98268.38;;;7.43;100.0
64025;BME280;50266;57.446;26.936;2023-04-26T01:46:20;98262.57;;;7.29;100.0
64025;BME280;50266;57.446;26.936;2023-04-26T01:47:20;98265.36;;;7.42;100.0
64025;BME280;50266;57.446;26.936;2023-04-26T01:48:20;98264.75;;;7.39;100.0
64025;BME280;50266;57.446;26.936;2023-04-26T01:49:20;98260.44;;;7.57;100.0
64025;BME280;50266;57.446;26.936;2023-04-26T01:50:21;98257.23;;;7.45;100.0
64025;BME280;50266;57.446;26.936;2023-04-26T01:51:20;98261.44;;;7.34;100.0
64025;BME280;50266;57.446;26.936;2023-04-26T01:52:21;98258.23;;;7.27;100.0
64025;BME280;50266;57.446;26.936;2023-04-26T01:53:20;98262.79;;;7.37;100.0
64025;BME280;50266;57.446;26.936;2023-04-26T01:54:21;98261.52;;;7.36;100.0
64025;BME280;50266;57.446;26.936;2023-04-26T01:55:20;98262.0;;;7.29;100.0
64025;BME280;50266;57.446;26.936;2023-04-26T01:56:22;98248.31;;;7.41;100.0
64025;BME280;50266;57.446;26.936;2023-04-26T01:57:20;98249.62;;;7.49;100.0
64025;BME280;50266;57.446;26.936;2023-04-26T01:58:21;98245.22;;;7.7;100.0
64025;BME280;50266;57.446;26.936;2023-04-26T01:59:21;98248.14;;;7.55;100.0
64025;BME280;50266;57.446;26.936;2023-04-26T02:00:21;98249.14;;;7.36;100.0
64025;BME280;50266;57.446;26.936;2023-04-26T02:01:21;98247.64;;;7.43;100.0
64025;BME280;50266;57.446;26.936;2023-04-26T02:02:21;98247.81;;;7.49;100.0
64025;BME280;50266;57.446;26.936;2023-04-26T02:03:21;98246.08;;;7.48;100.0
64025;BME280;50266;57.446;26.936;2023-04-26T02:04:21;98245.47;;;7.4;100.0
64025;BME280;50266;57.446;26.936;2023-04-26T02:05:21;98240.67;;;7.5;100.0
64025;BME280;50266;57.446;26.936;2023-04-26T02:06:21;98242.47;;;7.64;100.0
64025;BME280;50266;57.446;26.936;2023-04-26T02:07:21;98241.2;;;7.53;100.0
64025;BME280;50266;57.446;26.936;2023-04-26T02:08:21;98245.08;;;7.51;100.0
64025;BME280;50266;57.446;26.936;2023-04-26T02:09:21;98243.08;;;7.42;100.0
64025;BME280;50266;57.446;26.936;2023-04-26T02:10:21;98241.27;;;7.35;100.0
64025;BME280;50266;57.446;26.936;2023-04-26T02:11:21;98238.78;;;7.16;100.0
64025;BME280;50266;57.446;26.936;2023-04-26T02:12:21;98244.8;;;6.93;100.0
64025;BME280;50266;57.446;26.936;2023-04-26T02:13:21;98240.77;;;6.73;100.0
64025;BME280;50266;57.446;26.936;2023-04-26T02:14:21;98238.72;;;6.91;100.0
64025;BME280;50266;57.446;26.936;2023-04-26T02:15:21;98234.55;;;7.15;100.0
64025;BME280;50266;57.446;26.936;2023-04-26T02:16:21;98236.36;;;7.15;100.0
64025;BME280;50266;57.446;26.936;2023-04-26T02:17:21;98242.27;;;7.38;100.0
64025;BME280;50266;57.446;26.936;2023-04-26T02:18:21;98237.97;;;7.26;100.0
64025;BME280;50266;57.446;26.936;2023-04-26T02:19:21;98236.69;;;7.22;100.0
64025;BME280;50266;57.446;26.936;2023-04-26T02:20:21;98238.32;;;7.15;100.0
64025;BME280;50266;57.446;26.936;2023-04-26T02:21:21;98239.37;;;7.12;100.0
64025;BME280;50266;57.446;26.936;2023-04-26T02:22:22;98236.0;;;7.29;100.0
64025;BME280;50266;57.446;26.936;2023-04-26T02:23:21;98234.93;;;6.98;100.0
64025;BME280;50266;57.446;26.936;2023-04-26T02:24:21;98232.91;;;7.07;100.0
64025;BME280;50266;57.446;26.936;2023-04-26T02:25:21;98229.88;;;7.4;100.0
64025;BME280;50266;57.446;26.936;2023-04-26T02:26:21;98231.62;;;7.38;100.0
64025;BME280;50266;57.446;26.936;2023-04-26T02:27:21;98229.98;;;7.56;100.0
64025;BME280;50266;57.446;26.936;2023-04-26T02:28:21;98228.87;;;7.09;100.0
64025;BME280;50266;57.446;26.936;2023-04-26T02:29:21;98227.56;;;7.26;100.0
64025;BME280;50266;57.446;26.936;2023-04-26T02:30:22;98229.76;;;7.28;100.0
64025;BME280;50266;57.446;26.936;2023-04-26T02:31:22;98227.83;;;7.19;100.0
64025;BME280;50266;57.446;26.936;2023-04-26T02:32:22;98226.66;;;7.21;100.0
64025;BME280;50266;57.446;26.936;2023-04-26T02:33:22;98228.55;;;7.45;100.0
64025;BME280;50266;57.446;26.936;2023-04-26T02:34:22;98227.69;;;7.54;100.0
64025;BME280;50266;57.446;26.936;2023-04-26T02:35:22;98229.08;;;7.34;100.0
64025;BME280;50266;57.446;26.936;2023-04-26T02:36:22;98230.38;;;7.26;100.0
64025;BME280;50266;57.446;26.936;2023-04-26T02:37:22;98233.83;;;7.18;100.0
64025;BME280;50266;57.446;26.936;2023-04-26T02:38:23;98231.48;;;7.2;100.0
64025;BME280;50266;57.446;26.936;2023-04-26T02:39:22;98230.75;;;6.99;100.0
64025;BME280;50266;57.446;26.936;2023-04-26T02:40:22;98229.04;;;6.95;100.0
64025;BME280;50266;57.446;26.936;2023-04-26T02:41:22;98231.42;;;6.93;100.0
64025;BME280;50266;57.446;26.936;2023-04-26T02:42:23;98228.21;;;6.95;100.0
64025;BME280;50266;57.446;26.936;2023-04-26T02:43:22;98226.38;;;6.97;100.0
64025;BME280;50266;57.446;26.936;2023-04-26T02:44:22;98229.28;;;6.65;100.0
64025;BME280;50266;57.446;26.936;2023-04-26T02:45:22;98225.69;;;6.39;100.0
64025;BME280;50266;57.446;26.936;2023-04-26T02:46:22;98224.39;;;6.53;100.0
64025;BME280;50266;57.446;26.936;2023-04-26T02:47:22;98224.61;;;6.53;100.0
64025;BME280;50266;57.446;26.936;2023-04-26T02:48:22;98217.9;;;6.46;100.0
64025;BME280;50266;57.446;26.936;2023-04-26T02:49:22;98223.77;;;6.46;100.0
64025;BME280;50266;57.446;26.936;2023-04-26T02:50:22;98216.14;;;6.6;100.0
64025;BME280;50266;57.446;26.936;2023-04-26T02:51:22;98217.57;;;6.77;100.0
64025;BME280;50266;57.446;26.936;2023-04-26T02:52:22;98217.66;;;7.1;100.0
64025;BME280;50266;57.446;26.936;2023-04-26T02:53:22;98216.69;;;6.69;100.0
64025;BME280;50266;57.446;26.936;2023-04-26T02:54:22;98216.62;;;6.71;100.0
64025;BME280;50266;57.446;26.936;2023-04-26T02:55:22;98223.09;;;6.5;100.0
64025;BME280;50266;57.446;26.936;2023-04-26T02:56:22;98224.33;;;6.38;100.0
64025;BME280;50266;57.446;26.936;2023-04-26T02:57:23;98221.19;;;6.47;100.0
64025;BME280;50266;57.446;26.936;2023-04-26T02:58:22;98218.64;;;6.83;100.0
64025;BME280;50266;57.446;26.936;2023-04-26T02:59:23;98215.12;;;6.89;100.0
64025;BME280;50266;57.446;26.936;2023-04-26T03:00:23;98222.78;;;6.81;100.0
64025;BME280;50266;57.446;26.936;2023-04-26T03:01:23;98216.03;;;7.08;100.0
64025;BME280;50266;57.446;26.936;2023-04-26T03:02:23;98216.21;;;7.32;100.0
64025;BME280;50266;57.446;26.936;2023-04-26T03:03:23;98213.77;;;7.23;100.0
64025;BME280;50266;57.446;26.936;2023-04-26T03:04:23;98214.19;;;7.07;100.0
64025;BME280;50266;57.446;26.936;2023-04-26T03:05:23;98220.47;;;6.81;100.0
64025;BME280;50266;57.446;26.936;2023-04-26T03:06:23;98215.54;;;6.55;100.0
64025;BME280;50266;57.446;26.936;2023-04-26T03:07:23;98218.19;;;6.29;100.0
64025;BME280;50266;57.446;26.936;2023-04-26T03:08:23;98218.77;;;6.14;100.0
64025;BME280;50266;57.446;26.936;2023-04-26T03:09:23;98220.44;;;6.06;100.0
64025;BME280;50266;57.446;26.936;2023-04-26T03:10:23;98217.45;;;6.08;100.0
64025;BME280;50266;57.446;26.936;2023-04-26T03:11:23;98215.34;;;6.02;100.0
64025;BME280;50266;57.446;26.936;2023-04-26T03:12:23;98212.5;;;6.01;100.0
64025;BME280;50266;57.446;26.936;2023-04-26T03:13:23;98209.64;;;6.2;100.0
64025;BME280;50266;57.446;26.936;2023-04-26T03:14:23;98211.66;;;6.63;100.0
64025;BME280;50266;57.446;26.936;2023-04-26T03:15:23;98205.31;;;6.84;100.0
64025;BME280;50266;57.446;26.936;2023-04-26T03:16:23;98207.69;;;6.77;100.0
64025;BME280;50266;57.446;26.936;2023-04-26T03:17:23;98210.03;;;6.58;100.0
64025;BME280;50266;57.446;26.936;2023-04-26T03:18:23;98210.86;;;6.27;100.0
64025;BME280;50266;57.446;26.936;2023-04-26T03:19:23;98200.59;;;6.26;100.0
64025;BME280;50266;57.446;26.936;2023-04-26T03:20:23;98212.45;;;6.34;100.0
64025;BME280;50266;57.446;26.936;2023-04-26T03:21:24;98207.78;;;6.33;100.0
64025;BME280;50266;57.446;26.936;2023-04-26T03:22:23;98209.65;;;6.34;100.0
64025;BME280;50266;57.446;26.936;2023-04-26T03:23:23;98213.17;;;6.4;100.0
64025;BME280;50266;57.446;26.936;2023-04-26T03:24:23;98211.56;;;6.41;100.0
64025;BME280;50266;57.446;26.936;2023-04-26T03:25:24;98213.2;;;6.38;100.0
64025;BME280;50266;57.446;26.936;2023-04-26T03:26:23;98220.56;;;6.37;100.0
64025;BME280;50266;57.446;26.936;2023-04-26T03:27:24;98213.8;;;6.37;100.0
64025;BME280;50266;57.446;26.936;2023-04-26T03:28:23;98215.53;;;6.39;100.0
64025;BME280;50266;57.446;26.936;2023-04-26T03:29:23;98215.77;;;6.35;100.0
64025;BME280;50266;57.446;26.936;2023-04-26T03:30:23;98216.03;;;6.41;100.0
64025;BME280;50266;57.446;26.936;2023-04-26T03:31:23;98214.25;;;6.4;100.0
64025;BME280;50266;57.446;26.936;2023-04-26T03:32:23;98215.21;;;6.55;100.0
64025;BME280;50266;57.446;26.936;2023-04-26T03:33:23;98213.87;;;6.68;100.0
64025;BME280;50266;57.446;26.936;2023-04-26T03:34:23;98211.78;;;6.74;100.0
64025;BME280;50266;57.446;26.936;2023-04-26T03:35:24;98209.72;;;6.58;100.0
64025;BME280;50266;57.446;26.936;2023-04-26T03:36:24;98213.07;;;6.57;100.0
64025;BME280;50266;57.446;26.936;2023-04-26T03:37:24;98218.73;;;6.5;100.0
64025;BME280;50266;57.446;26.936;2023-04-26T03:38:24;98216.38;;;6.45;100.0
64025;BME280;50266;57.446;26.936;2023-04-26T03:39:24;98220.64;;;6.59;100.0
64025;BME280;50266;57.446;26.936;2023-04-26T03:40:24;98222.19;;;6.61;100.0
64025;BME280;50266;57.446;26.936;2023-04-26T03:41:24;98221.94;;;6.65;100.0
64025;BME280;50266;57.446;26.936;2023-04-26T03:42:24;98225.92;;;6.73;100.0
64025;BME280;50266;57.446;26.936;2023-04-26T03:43:24;98227.36;;;6.78;100.0
64025;BME280;50266;57.446;26.936;2023-04-26T03:44:24;98226.75;;;6.57;100.0
64025;BME280;50266;57.446;26.936;2023-04-26T03:45:24;98226.03;;;6.64;100.0
64025;BME280;50266;57.446;26.936;2023-04-26T03:46:24;98227.53;;;6.62;100.0
64025;BME280;50266;57.446;26.936;2023-04-26T03:47:24;98230.23;;;6.53;100.0
64025;BME280;50266;57.446;26.936;2023-04-26T03:48:24;98228.64;;;6.61;100.0
64025;BME280;50266;57.446;26.936;2023-04-26T03:49:24;98227.47;;;6.88;100.0
64025;BME280;50266;57.446;26.936;2023-04-26T03:50:24;98230.81;;;7.34;100.0
64025;BME280;50266;57.446;26.936;2023-04-26T03:51:24;98229.47;;;7.04;100.0
64025;BME280;50266;57.446;26.936;2023-04-26T03:52:24;98222.5;;;7.23;100.0
64025;BME280;50266;57.446;26.936;2023-04-26T03:53:24;98226.56;;;7.23;100.0
64025;BME280;50266;57.446;26.936;2023-04-26T03:54:24;98225.81;;;7.23;100.0
64025;BME280;50266;57.446;26.936;2023-04-26T03:55:24;98226.84;;;7.0;100.0
64025;BME280;50266;57.446;26.936;2023-04-26T03:56:24;98230.03;;;6.85;100.0
64025;BME280;50266;57.446;26.936;2023-04-26T03:57:24;98227.16;;;6.82;100.0
64025;BME280;50266;57.446;26.936;2023-04-26T03:58:24;98232.31;;;6.8;100.0
64025;BME280;50266;57.446;26.936;2023-04-26T03:59:24;98228.52;;;6.99;100.0
64025;BME280;50266;57.446;26.936;2023-04-26T04:00:24;98226.75;;;7.34;100.0
64025;BME280;50266;57.446;26.936;2023-04-26T04:01:24;98226.12;;;7.24;100.0
64025;BME280;50266;57.446;26.936;2023-04-26T04:02:24;98222.63;;;7.17;100.0
64025;BME280;50266;57.446;26.936;2023-04-26T04:03:24;98227.34;;;7.22;100.0
64025;BME280;50266;57.446;26.936;2023-04-26T04:04:24;98224.84;;;7.29;100.0
64025;BME280;50266;57.446;26.936;2023-04-26T04:05:24;98223.5;;;7.25;100.0
64025;BME280;50266;57.446;26.936;2023-04-26T04:06:24;98228.63;;;7.07;100.0
64025;BME280;50266;57.446;26.936;2023-04-26T04:07:24;98230.23;;;7.05;100.0
64025;BME280;50266;57.446;26.936;2023-04-26T04:08:24;98233.26;;;7.16;100.0
64025;BME280;50266;57.446;26.936;2023-04-26T04:09:24;98234.44;;;7.0;100.0
64025;BME280;50266;57.446;26.936;2023-04-26T04:10:24;98235.73;;;6.88;100.0
64025;BME280;50266;57.446;26.936;2023-04-26T04:11:24;98231.8;;;6.87;100.0
64025;BME280;50266;57.446;26.936;2023-04-26T04:12:24;98227.81;;;6.98;100.0
64025;BME280;50266;57.446;26.936;2023-04-26T04:13:24;98226.38;;;7.11;100.0
64025;BME280;50266;57.446;26.936;2023-04-26T04:14:24;98229.3;;;7.16;100.0
64025;BME280;50266;57.446;26.936;2023-04-26T04:15:24;98227.83;;;7.24;100.0
64025;BME280;50266;57.446;26.936;2023-04-26T04:16:24;98233.81;;;7.28;100.0
64025;BME280;50266;57.446;26.936;2023-04-26T04:17:24;98233.34;;;7.1;100.0
64025;BME280;50266;57.446;26.936;2023-04-26T04:18:24;98236.88;;;7.06;100.0
64025;BME280;50266;57.446;26.936;2023-04-26T04:19:24;98231.85;;;7.04;100.0
64025;BME280;50266;57.446;26.936;2023-04-26T04:20:24;98235.61;;;7.03;100.0
64025;BME280;50266;57.446;26.936;2023-04-26T04:21:24;98236.27;;;7.01;100.0
64025;BME280;50266;57.446;26.936;2023-04-26T04:22:24;98233.97;;;6.97;100.0
64025;BME280;50266;57.446;26.936;2023-04-26T04:23:24;98235.47;;;7.06;100.0
64025;BME280;50266;57.446;26.936;2023-04-26T04:24:24;98233.68;;;7.17;100.0
64025;BME280;50266;57.446;26.936;2023-04-26T04:25:24;98232.25;;;7.28;100.0
64025;BME280;50266;57.446;26.936;2023-04-26T04:26:24;98230.3;;;7.34;100.0
64025;BME280;50266;57.446;26.936;2023-04-26T04:27:25;98230.62;;;7.45;100.0
64025;BME280;50266;57.446;26.936;2023-04-26T04:28:24;98225.44;;;7.58;100.0
64025;BME280;50266;57.446;26.936;2023-04-26T04:29:24;98225.16;;;7.67;100.0
64025;BME280;50266;57.446;26.936;2023-04-26T04:30:24;98222.33;;;7.8;100.0
64025;BME280;50266;57.446;26.936;2023-04-26T04:31:24;98224.92;;;7.81;100.0
64025;BME280;50266;57.446;26.936;2023-04-26T04:32:24;98226.78;;;7.72;100.0
64025;BME280;50266;57.446;26.936;2023-04-26T04:33:24;98227.2;;;7.69;100.0
64025;BME280;50266;57.446;26.936;2023-04-26T04:34:24;98229.03;;;7.73;100.0
64025;BME280;50266;57.446;26.936;2023-04-26T04:35:24;98234.68;;;7.86;100.0
64025;BME280;50266;57.446;26.936;2023-04-26T04:36:24;98232.48;;;7.98;100.0
64025;BME280;50266;57.446;26.936;2023-04-26T04:37:24;98233.86;;;8.09;100.0
64025;BME280;50266;57.446;26.936;2023-04-26T04:38:24;98235.88;;;8.14;100.0
64025;BME280;50266;57.446;26.936;2023-04-26T04:39:24;98237.32;;;8.15;100.0
64025;BME280;50266;57.446;26.936;2023-04-26T04:40:24;98236.25;;;8.15;100.0
64025;BME280;50266;57.446;26.936;2023-04-26T04:41:24;98233.31;;;8.14;100.0
64025;BME280;50266;57.446;26.936;2023-04-26T04:42:24;98238.14;;;8.22;100.0
64025;BME280;50266;57.446;26.936;2023-04-26T04:43:24;98234.56;;;8.34;100.0
64025;BME280;50266;57.446;26.936;2023-04-26T04:44:24;98238.83;;;8.38;100.0
64025;BME280;50266;57.446;26.936;2023-04-26T04:45:24;98237.48;;;8.35;100.0
64025;BME280;50266;57.446;26.936;2023-04-26T04:46:24;98237.91;;;8.31;100.0
64025;BME280;50266;57.446;26.936;2023-04-26T04:47:24;98238.64;;;8.3;100.0
64025;BME280;50266;57.446;26.936;2023-04-26T04:48:24;98234.23;;;8.32;100.0
64025;BME280;50266;57.446;26.936;2023-04-26T04:49:24;98235.7;;;8.39;100.0
64025;BME280;50266;57.446;26.936;2023-04-26T04:50:25;98241.58;;;8.34;100.0
64025;BME280;50266;57.446;26.936;2023-04-26T04:51:24;98243.29;;;8.38;100.0
64025;BME280;50266;57.446;26.936;2023-04-26T04:52:25;98240.66;;;8.42;100.0
64025;BME280;50266;57.446;26.936;2023-04-26T04:53:25;98239.29;;;8.48;100.0
64025;BME280;50266;57.446;26.936;2023-04-26T04:54:25;98241.04;;;8.52;100.0
64025;BME280;50266;57.446;26.936;2023-04-26T04:55:25;98240.61;;;8.5;100.0
64025;BME280;50266;57.446;26.936;2023-04-26T04:56:25;98243.71;;;8.55;100.0
64025;BME280;50266;57.446;26.936;2023-04-26T04:57:25;98246.55;;;8.64;100.0
64025;BME280;50266;57.446;26.936;2023-04-26T04:58:25;98252.91;;;8.64;100.0
64025;BME280;50266;57.446;26.936;2023-04-26T04:59:25;98254.95;;;8.77;100.0
64025;BME280;50266;57.446;26.936;2023-04-26T05:00:25;98253.37;;;8.83;100.0
64025;BME280;50266;57.446;26.936;2023-04-26T05:01:25;98256.48;;;8.9;100.0
64025;BME280;50266;57.446;26.936;2023-04-26T05:02:25;98254.81;;;8.96;100.0
64025;BME280;50266;57.446;26.936;2023-04-26T05:03:25;98256.2;;;9.04;100.0
64025;BME280;50266;57.446;26.936;2023-04-26T05:04:25;98258.36;;;9.07;100.0
64025;BME280;50266;57.446;26.936;2023-04-26T05:05:25;98257.98;;;9.14;100.0
64025;BME280;50266;57.446;26.936;2023-04-26T05:06:28;98257.34;;;9.15;100.0
64025;BME280;50266;57.446;26.936;2023-04-26T05:07:25;98256.78;;;9.19;100.0
64025;BME280;50266;57.446;26.936;2023-04-26T05:08:25;98254.52;;;9.24;100.0
64025;BME280;50266;57.446;26.936;2023-04-26T05:09:25;98255.25;;;9.21;100.0
64025;BME280;50266;57.446;26.936;2023-04-26T05:10:25;98252.41;;;9.22;100.0
64025;BME280;50266;57.446;26.936;2023-04-26T05:11:25;98254.66;;;9.29;100.0
64025;BME280;50266;57.446;26.936;2023-04-26T05:12:25;98255.78;;;9.24;100.0
64025;BME280;50266;57.446;26.936;2023-04-26T05:13:25;98250.31;;;9.3;100.0
64025;BME280;50266;57.446;26.936;2023-04-26T05:14:25;98256.08;;;9.26;100.0
64025;BME280;50266;57.446;26.936;2023-04-26T05:15:25;98258.85;;;9.34;100.0
64025;BME280;50266;57.446;26.936;2023-04-26T05:16:25;98252.44;;;9.35;100.0
64025;BME280;50266;57.446;26.936;2023-04-26T05:17:25;98256.82;;;9.42;100.0
64025;BME280;50266;57.446;26.936;2023-04-26T05:18:25;98253.55;;;9.41;100.0